createdAt,value
2022-12-19T00:00:13.983Z,-0.30
2022-12-19T00:02:42.448Z,-0.40
2022-12-19T00:05:11.053Z,-0.30
2022-12-19T00:07:38.141Z,-0.30
2022-12-19T00:10:06.641Z,-0.20
2022-12-19T00:12:35.220Z,-0.20
2022-12-19T00:15:02.173Z,-0.20
2022-12-19T00:17:29.253Z,-0.20
2022-12-19T00:19:56.181Z,-0.30
2022-12-19T00:22:23.270Z,-0.20
2022-12-19T00:24:50.381Z,-0.20
2022-12-19T00:27:20.415Z,-0.20
2022-12-19T00:29:48.851Z,-0.30
2022-12-19T00:32:16.693Z,-0.30
2022-12-19T00:34:43.845Z,-0.30
2022-12-19T00:37:11.842Z,-0.30
2022-12-19T00:39:41.780Z,-0.30
2022-12-19T00:42:08.774Z,-0.30
2022-12-19T00:44:35.749Z,-0.20
2022-12-19T00:47:04.332Z,-0.20
2022-12-19T00:49:34.121Z,-0.20
2022-12-19T00:52:02.308Z,-0.10
2022-12-19T00:54:29.576Z,-0.20
2022-12-19T00:56:56.803Z,-0.20
2022-12-19T00:59:26.503Z,-0.20
2022-12-19T01:02:02.825Z,-0.10
2022-12-19T01:04:31.250Z,-0.10
2022-12-19T01:07:03.110Z,-0.10
2022-12-19T01:09:30.680Z,-0.10
2022-12-19T01:12:25.684Z,-0.10
2022-12-19T01:14:54.064Z,-0.10
2022-12-19T01:17:24.582Z,-0.10
2022-12-19T01:19:51.489Z,-0.10
2022-12-19T01:22:18.469Z,-0.20
2022-12-19T01:24:45.827Z,-0.20
2022-12-19T01:27:15.518Z,-0.20
2022-12-19T01:29:51.783Z,-0.20
2022-12-19T01:32:20.360Z,-0.10
2022-12-19T01:34:51.964Z,0.00
2022-12-19T01:37:21.778Z,0.00
2022-12-19T01:39:49.014Z,0.00
2022-12-19T01:42:19.653Z,0.00
2022-12-19T01:45:33.116Z,0.00
2022-12-19T01:48:15.050Z,0.00
2022-12-19T01:51:01.739Z,-0.10
2022-12-19T01:53:36.633Z,-0.10
2022-12-19T01:56:24.468Z,-0.10
2022-12-19T01:59:05.818Z,-0.10
2022-12-19T02:01:34.520Z,-0.10
2022-12-19T02:04:03.418Z,-0.10
2022-12-19T02:06:35.039Z,0.00
2022-12-19T02:09:02.453Z,0.00
2022-12-19T02:11:34.554Z,0.00
2022-12-19T02:14:01.664Z,0.00
2022-12-19T02:16:42.260Z,0.10
2022-12-19T02:19:46.928Z,0.10
2022-12-19T02:22:22.445Z,0.00
2022-12-19T02:25:17.948Z,0.00
2022-12-19T02:28:22.929Z,0.00
2022-12-19T02:31:13.753Z,0.00
2022-12-19T02:33:50.271Z,0.00
2022-12-19T02:36:26.380Z,0.00
2022-12-19T02:39:00.073Z,0.10
2022-12-19T02:41:43.220Z,0.10
2022-12-19T02:44:14.805Z,0.10
2022-12-19T02:46:45.126Z,0.10
2022-12-19T02:49:13.141Z,0.10
2022-12-19T02:51:42.533Z,0.10
2022-12-19T02:54:10.936Z,0.20
2022-12-19T02:56:51.184Z,0.20
2022-12-19T02:59:49.360Z,0.10
2022-12-19T03:02:33.138Z,0.10
2022-12-19T03:05:14.634Z,0.20
2022-12-19T03:07:53.820Z,0.10
2022-12-19T03:10:41.657Z,0.20
2022-12-19T03:13:13.138Z,0.20
2022-12-19T03:15:41.083Z,0.30
2022-12-19T03:18:10.533Z,0.30
2022-12-19T03:20:49.943Z,0.30
2022-12-19T03:23:17.579Z,0.30
2022-12-19T03:25:52.663Z,0.30
2022-12-19T03:28:23.760Z,0.30
2022-12-19T03:30:51.837Z,0.20
2022-12-19T03:33:22.207Z,0.30
2022-12-19T03:35:50.658Z,0.30
2022-12-19T03:38:20.643Z,0.20
2022-12-19T03:40:49.238Z,0.20
2022-12-19T03:43:18.140Z,0.30
2022-12-19T03:45:56.790Z,0.30
2022-12-19T03:48:32.737Z,0.30
2022-12-19T03:51:09.881Z,0.30
2022-12-19T03:53:54.149Z,0.30
2022-12-19T03:56:32.329Z,0.30
2022-12-19T03:59:10.890Z,0.30
2022-12-19T04:01:40.016Z,0.30
2022-12-19T04:04:10.430Z,0.40
2022-12-19T04:06:39.573Z,0.40
2022-12-19T04:09:07.761Z,0.40
2022-12-19T04:11:48.839Z,0.50
2022-12-19T04:14:25.875Z,0.50
2022-12-19T04:17:02.081Z,0.40
2022-12-19T04:19:41.070Z,0.50
2022-12-19T04:22:16.430Z,0.50
2022-12-19T04:24:47.063Z,0.40
2022-12-19T04:27:15.099Z,0.50
2022-12-19T04:29:45.496Z,0.60
2022-12-19T04:32:19.593Z,0.60
2022-12-19T04:34:51.075Z,0.60
2022-12-19T04:37:18.474Z,0.60
2022-12-19T04:39:51.496Z,0.60
2022-12-19T04:42:22.011Z,0.70
2022-12-19T04:44:48.980Z,0.70
2022-12-19T04:47:15.912Z,0.60
2022-12-19T04:49:46.034Z,0.70
2022-12-19T04:52:14.639Z,0.70
2022-12-19T04:54:53.850Z,0.50
2022-12-19T04:57:21.090Z,0.50
2022-12-19T04:59:53.884Z,0.60
2022-12-19T05:02:24.774Z,0.60
2022-12-19T05:04:51.870Z,0.70
2022-12-19T05:07:23.179Z,0.70
2022-12-19T05:09:55.661Z,0.60
2022-12-19T05:12:22.577Z,0.70
2022-12-19T05:14:49.517Z,0.70
2022-12-19T05:17:16.572Z,0.80
2022-12-19T05:19:43.497Z,0.80
2022-12-19T05:22:16.740Z,0.80
2022-12-19T05:24:44.951Z,0.80
2022-12-19T05:27:11.999Z,0.80
2022-12-19T05:29:38.962Z,0.80
2022-12-19T05:32:06.278Z,0.80
2022-12-19T05:34:33.236Z,0.70
2022-12-19T05:37:05.357Z,0.80
2022-12-19T05:39:32.309Z,0.80
2022-12-19T05:42:00.782Z,0.80
2022-12-19T05:44:27.736Z,0.70
2022-12-19T05:46:54.741Z,0.80
2022-12-19T05:49:21.740Z,0.80
2022-12-19T05:51:49.396Z,0.80
2022-12-19T05:54:16.583Z,0.90
2022-12-19T05:56:43.519Z,0.80
2022-12-19T05:59:12.110Z,0.80
2022-12-19T06:01:39.516Z,0.80
2022-12-19T06:04:07.815Z,0.80
2022-12-19T06:06:35.018Z,0.80
2022-12-19T06:09:02.653Z,0.80
2022-12-19T06:11:29.675Z,0.90
2022-12-19T06:13:56.683Z,0.90
2022-12-19T06:16:24.973Z,0.90
2022-12-19T06:18:52.230Z,0.90
2022-12-19T06:21:21.515Z,0.90
2022-12-19T06:23:49.556Z,0.90
2022-12-19T06:26:22.734Z,0.90
2022-12-19T06:28:51.565Z,1.00
2022-12-19T06:31:20.534Z,1.00
2022-12-19T06:33:49.065Z,1.00
2022-12-19T06:36:20.695Z,1.00
2022-12-19T06:38:48.074Z,1.00
2022-12-19T06:41:34.663Z,1.00
2022-12-19T06:44:04.064Z,0.90
2022-12-19T06:46:31.437Z,0.90
2022-12-19T06:49:00.147Z,1.00
2022-12-19T06:51:27.350Z,1.00
2022-12-19T06:53:54.513Z,1.00
2022-12-19T06:56:21.771Z,1.10
2022-12-19T06:58:49.611Z,1.10
2022-12-19T07:01:18.240Z,1.10
2022-12-19T07:03:47.000Z,1.10
2022-12-19T07:06:15.333Z,1.10
2022-12-19T07:08:42.526Z,1.00
2022-12-19T07:11:09.831Z,1.10
2022-12-19T07:13:36.982Z,1.10
2022-12-19T07:16:06.175Z,1.00
2022-12-19T07:18:37.891Z,1.10
2022-12-19T07:21:06.345Z,1.10
2022-12-19T07:23:35.804Z,1.10
2022-12-19T07:26:02.891Z,1.10
2022-12-19T07:28:30.119Z,1.10
2022-12-19T07:30:57.175Z,1.10
2022-12-19T07:33:24.698Z,1.20
2022-12-19T07:35:52.336Z,1.20
2022-12-19T07:38:19.419Z,1.10
2022-12-19T07:40:47.959Z,1.20
2022-12-19T07:43:15.069Z,1.20
2022-12-19T07:45:42.267Z,1.20
2022-12-19T07:48:09.975Z,1.30
2022-12-19T07:50:40.753Z,1.30
2022-12-19T07:53:08.168Z,1.30
2022-12-19T07:55:35.211Z,1.40
2022-12-19T07:58:04.034Z,1.40
2022-12-19T08:00:31.649Z,1.30
2022-12-19T08:03:01.822Z,1.30
2022-12-19T08:05:29.080Z,1.40
2022-12-19T08:07:58.811Z,1.30
2022-12-19T08:10:26.034Z,1.20
2022-12-19T08:12:53.054Z,1.40
2022-12-19T08:15:24.911Z,1.30
2022-12-19T08:17:53.865Z,1.30
2022-12-19T08:20:27.242Z,1.20
2022-12-19T08:22:54.440Z,1.20
2022-12-19T08:25:21.343Z,1.30
2022-12-19T08:27:48.499Z,1.20
2022-12-19T08:30:15.738Z,1.30
2022-12-19T08:32:45.196Z,1.30
2022-12-19T08:35:12.759Z,1.30
2022-12-19T08:37:42.800Z,1.40
2022-12-19T08:40:11.234Z,1.40
2022-12-19T08:42:38.244Z,1.40
2022-12-19T08:45:06.883Z,1.40
2022-12-19T08:47:33.859Z,1.30
2022-12-19T08:50:02.266Z,1.30
2022-12-19T08:52:29.232Z,1.30
2022-12-19T08:54:56.204Z,1.30
2022-12-19T08:57:23.173Z,1.40
2022-12-19T08:59:50.083Z,1.40
2022-12-19T09:02:18.666Z,1.50
2022-12-19T09:05:59.779Z,1.40
2022-12-19T09:07:38.632Z,1.40
2022-12-19T09:10:07.943Z,1.40
2022-12-19T09:12:34.938Z,1.50
2022-12-19T09:15:01.912Z,1.60
2022-12-19T09:17:31.866Z,1.60
2022-12-19T09:19:58.838Z,1.70
2022-12-19T09:22:29.352Z,1.70
2022-12-19T09:24:58.002Z,1.70
2022-12-19T09:27:25.120Z,1.70
2022-12-19T09:29:52.152Z,1.80
2022-12-19T09:32:19.418Z,1.70
2022-12-19T09:34:52.244Z,1.80
2022-12-19T09:37:19.191Z,1.80
2022-12-19T09:39:46.501Z,1.80
2022-12-19T09:42:47.151Z,1.80
2022-12-19T09:45:32.411Z,1.80
2022-12-19T09:48:01.445Z,1.80
2022-12-19T09:50:44.738Z,1.80
2022-12-19T09:53:21.456Z,1.70
2022-12-19T09:55:49.540Z,1.60
2022-12-19T09:58:32.603Z,1.60
2022-12-19T10:01:07.422Z,1.80
2022-12-19T10:03:40.948Z,1.80
2022-12-19T10:07:10.625Z,1.80
2022-12-19T10:10:34.468Z,1.90
2022-12-19T10:12:40.013Z,1.90
2022-12-19T10:15:16.740Z,1.90
2022-12-19T10:18:12.143Z,1.90
2022-12-19T10:20:46.184Z,1.90
2022-12-19T10:23:42.868Z,1.90
2022-12-19T10:26:18.419Z,1.90
2022-12-19T10:29:05.556Z,1.90
2022-12-19T10:31:42.372Z,1.90
2022-12-19T10:34:19.925Z,1.90
2022-12-19T10:39:56.723Z,1.90
2022-12-19T10:42:33.863Z,2.10
2022-12-19T10:45:11.200Z,2.10
2022-12-19T10:47:41.832Z,2.10
2022-12-19T10:50:12.991Z,2.10
2022-12-19T10:52:52.451Z,2.00
2022-12-19T10:55:36.054Z,2.10
2022-12-19T10:58:20.709Z,2.10
2022-12-19T11:01:13.571Z,2.10
2022-12-19T11:03:44.466Z,2.10
2022-12-19T11:06:48.793Z,2.10
2022-12-19T11:09:27.599Z,2.20
2022-12-19T11:15:50.414Z,2.20
2022-12-19T11:19:41.629Z,2.10
2022-12-19T11:27:08.379Z,2.20
2022-12-19T11:29:19.366Z,2.20
2022-12-19T11:29:45.691Z,2.30
2022-12-19T11:30:45.890Z,2.30
2022-12-19T11:32:43.028Z,2.40
2022-12-19T11:35:24.330Z,2.30
2022-12-19T11:37:56.989Z,2.30
2022-12-19T11:40:33.467Z,2.30
2022-12-19T11:43:42.659Z,2.30
2022-12-19T11:46:01.058Z,2.30
2022-12-19T11:48:37.777Z,2.30
2022-12-19T11:51:17.029Z,2.40
2022-12-19T11:53:55.809Z,2.40
2022-12-19T11:56:25.583Z,2.40
2022-12-19T11:58:58.992Z,2.50
2022-12-19T12:01:49.610Z,2.40
2022-12-19T12:04:49.244Z,2.50
2022-12-19T12:07:45.709Z,2.50
2022-12-19T12:15:40.888Z,2.50
2022-12-19T12:20:13.532Z,2.40
2022-12-19T12:28:39.824Z,2.50
2022-12-19T12:31:13.967Z,2.50
2022-12-19T12:31:32.656Z,2.50
2022-12-19T12:31:50.449Z,2.50
2022-12-19T12:31:51.388Z,2.50
2022-12-19T12:36:54.506Z,2.60
2022-12-19T12:38:23.426Z,2.60
2022-12-19T12:41:11.622Z,2.50
2022-12-19T12:44:11.149Z,2.40
2022-12-19T12:46:43.909Z,2.50
2022-12-19T12:49:28.972Z,2.60
2022-12-19T12:52:01.762Z,2.50
2022-12-19T12:54:34.365Z,2.40
2022-12-19T12:57:03.903Z,2.50
2022-12-19T12:59:32.227Z,2.60
2022-12-19T13:02:01.306Z,2.60
2022-12-19T13:04:34.772Z,2.60
2022-12-19T13:07:33.712Z,2.60
2022-12-19T13:10:24.591Z,2.70
2022-12-19T13:13:00.499Z,2.60
2022-12-19T13:15:38.845Z,2.70
2022-12-19T13:18:33.592Z,2.80
2022-12-19T13:21:04.221Z,2.80
2022-12-19T13:23:47.745Z,2.60
2022-12-19T13:26:46.176Z,2.60
2022-12-19T13:29:31.895Z,2.70
2022-12-19T13:32:11.434Z,2.80
2022-12-19T13:34:38.420Z,2.80
2022-12-19T13:39:59.626Z,2.70
2022-12-19T13:40:30.541Z,2.70
2022-12-19T13:43:35.204Z,2.70
2022-12-19T13:46:06.647Z,2.80
2022-12-19T13:48:39.641Z,2.80
2022-12-19T13:51:11.926Z,2.80
2022-12-19T13:53:39.966Z,2.80
2022-12-19T13:56:14.407Z,2.80
2022-12-19T13:58:49.751Z,2.80
2022-12-19T14:01:24.776Z,2.70
2022-12-19T14:03:57.531Z,2.60
2022-12-19T14:06:44.338Z,2.70
2022-12-19T14:11:27.388Z,2.60
2022-12-19T14:13:55.468Z,2.60
2022-12-19T14:15:34.446Z,2.60
2022-12-19T14:18:42.221Z,2.70
2022-12-19T14:22:03.652Z,2.70
2022-12-19T14:24:17.372Z,2.80
2022-12-19T14:28:21.195Z,2.90
2022-12-19T14:30:30.430Z,2.80
2022-12-19T14:33:43.502Z,2.80
2022-12-19T14:36:07.848Z,2.80
2022-12-19T14:39:24.815Z,2.70
2022-12-19T14:42:01.439Z,2.60
2022-12-19T14:53:34.303Z,2.50
2022-12-19T14:54:14.513Z,2.70
2022-12-19T14:54:14.922Z,2.60
2022-12-19T14:54:25.924Z,2.70
2022-12-19T14:59:29.901Z,2.90
2022-12-19T15:02:03.701Z,3.10
2022-12-19T15:04:53.009Z,2.90
2022-12-19T15:07:25.597Z,2.80
2022-12-19T15:10:58.189Z,2.60
2022-12-19T15:14:48.758Z,2.70
2022-12-19T15:16:07.517Z,2.70
2022-12-19T15:18:41.585Z,2.60
2022-12-19T15:21:12.783Z,2.70
2022-12-19T15:23:40.732Z,2.60
2022-12-19T15:26:14.643Z,2.60
2022-12-19T15:28:44.130Z,2.50
2022-12-19T15:31:27.731Z,2.50
2022-12-19T15:36:42.802Z,2.60
2022-12-19T15:39:09.833Z,2.50
2022-12-19T15:41:38.219Z,2.50
2022-12-19T15:44:10.336Z,2.50
2022-12-19T15:46:42.839Z,2.50
2022-12-19T15:49:18.553Z,2.50
2022-12-19T15:51:46.699Z,2.50
2022-12-19T15:57:02.261Z,2.50
2022-12-19T15:59:38.265Z,2.50
2022-12-19T16:02:18.863Z,2.50
2022-12-19T16:04:47.822Z,2.50
2022-12-19T16:07:21.367Z,2.60
2022-12-19T16:09:51.838Z,2.50
2022-12-19T16:12:30.053Z,2.50
2022-12-19T16:14:59.373Z,2.50
2022-12-19T16:17:29.519Z,2.50
2022-12-19T16:20:02.506Z,2.50
2022-12-19T16:22:32.253Z,2.50
2022-12-19T16:25:04.430Z,2.50
2022-12-19T16:27:32.712Z,2.50
2022-12-19T16:30:18.588Z,2.50
2022-12-19T16:32:46.533Z,2.40
2022-12-19T16:35:23.995Z,2.40
2022-12-19T16:38:01.390Z,2.40
2022-12-19T16:40:28.645Z,2.50
2022-12-19T16:43:05.356Z,2.50
2022-12-19T16:45:34.037Z,2.50
2022-12-19T16:48:01.016Z,2.40
2022-12-19T16:50:30.934Z,2.40
2022-12-19T16:52:58.098Z,2.30
2022-12-19T16:55:26.215Z,2.30
2022-12-19T16:57:56.136Z,2.40
2022-12-19T17:00:25.514Z,2.20
2022-12-19T17:02:58.562Z,2.10
2022-12-19T17:05:28.363Z,2.10
2022-12-19T17:07:56.186Z,2.30
2022-12-19T17:10:30.705Z,2.40
2022-12-19T17:12:59.557Z,2.50
2022-12-19T17:15:35.212Z,2.60
2022-12-19T17:18:18.796Z,2.60
2022-12-19T17:20:47.553Z,2.50
2022-12-19T17:23:19.700Z,2.60
2022-12-19T17:25:49.969Z,2.60
2022-12-19T17:28:17.292Z,2.60
2022-12-19T17:30:51.875Z,2.70
2022-12-19T17:33:27.701Z,2.60
2022-12-19T17:35:54.811Z,2.60
2022-12-19T17:38:23.503Z,2.50
2022-12-19T17:40:53.654Z,2.50
2022-12-19T17:43:23.267Z,2.50
2022-12-19T17:45:52.090Z,2.50
2022-12-19T17:48:26.626Z,2.50
2022-12-19T17:50:54.604Z,2.40
2022-12-19T17:53:22.559Z,2.50
2022-12-19T17:55:50.033Z,2.50
2022-12-19T17:58:17.466Z,2.40
2022-12-19T18:00:47.008Z,2.30
2022-12-19T18:03:22.371Z,2.40
2022-12-19T18:05:51.229Z,2.50
2022-12-19T18:08:27.725Z,2.50
2022-12-19T18:10:56.975Z,2.40
2022-12-19T18:13:25.347Z,2.40
2022-12-19T18:15:56.250Z,2.30
2022-12-19T18:18:29.757Z,2.30
2022-12-19T18:21:01.021Z,2.30
2022-12-19T18:23:31.783Z,2.30
2022-12-19T18:26:01.939Z,2.20
2022-12-19T18:28:32.940Z,2.30
2022-12-19T18:31:03.810Z,2.30
2022-12-19T18:33:38.385Z,2.20
2022-12-19T18:36:11.688Z,2.20
2022-12-19T18:38:38.693Z,2.20
2022-12-19T18:41:05.778Z,2.30
2022-12-19T18:43:33.586Z,2.40
2022-12-19T18:46:00.707Z,2.40
2022-12-19T18:48:32.651Z,2.50
2022-12-19T18:51:01.469Z,2.60
2022-12-19T18:53:35.302Z,2.60
2022-12-19T18:56:05.310Z,2.40
2022-12-19T18:58:33.376Z,2.40
2022-12-19T19:01:02.519Z,2.40
2022-12-19T19:03:33.831Z,2.50
2022-12-19T19:06:17.685Z,2.40
2022-12-19T19:08:44.637Z,2.40
2022-12-19T19:11:12.959Z,2.40
2022-12-19T19:13:42.787Z,2.40
2022-12-19T19:16:17.772Z,2.30
2022-12-19T19:18:49.363Z,2.30
2022-12-19T19:21:16.894Z,2.40
2022-12-19T19:23:48.409Z,2.30
2022-12-19T19:26:15.479Z,2.20
2022-12-19T19:28:47.047Z,2.30
2022-12-19T19:31:19.588Z,2.20
2022-12-19T19:33:52.622Z,2.20
2022-12-19T19:36:28.299Z,2.20
2022-12-19T19:38:58.579Z,2.30
2022-12-19T19:41:30.138Z,2.20
2022-12-19T19:44:01.417Z,2.20
2022-12-19T19:46:29.850Z,2.30
2022-12-19T19:48:58.570Z,2.40
2022-12-19T19:51:26.327Z,2.20
2022-12-19T19:53:53.487Z,2.10
2022-12-19T19:56:20.570Z,2.20
2022-12-19T19:58:47.590Z,2.20
2022-12-19T20:01:15.475Z,2.10
2022-12-19T20:03:44.952Z,2.20
2022-12-19T20:06:14.499Z,2.30
2022-12-19T20:08:47.515Z,2.40
2022-12-19T20:11:14.575Z,2.30
2022-12-19T20:13:44.612Z,2.40
2022-12-19T20:16:19.129Z,2.10
2022-12-19T20:18:50.055Z,1.90
2022-12-19T20:21:20.152Z,1.90
2022-12-19T20:23:47.775Z,1.90
2022-12-19T20:26:18.951Z,2.00
2022-12-19T20:28:49.523Z,2.00
2022-12-19T20:31:18.318Z,1.90
2022-12-19T20:33:46.414Z,2.00
2022-12-19T20:36:14.094Z,2.10
2022-12-19T20:38:42.895Z,2.20
2022-12-19T20:41:13.197Z,2.40
2022-12-19T20:43:48.005Z,2.40
2022-12-19T20:46:17.815Z,2.40
2022-12-19T20:48:46.113Z,2.50
2022-12-19T20:51:14.953Z,2.60
2022-12-19T20:53:44.703Z,2.60
2022-12-19T20:56:15.462Z,2.60
2022-12-19T20:58:46.871Z,2.50
2022-12-19T21:01:19.653Z,2.20
2022-12-19T21:03:51.590Z,2.10
2022-12-19T21:06:21.423Z,2.00
2022-12-19T21:08:59.077Z,1.90
2022-12-19T21:11:33.516Z,1.80
2022-12-19T21:14:00.550Z,1.90
2022-12-19T21:16:34.060Z,1.90
2022-12-19T21:19:01.217Z,1.80
2022-12-19T21:21:31.079Z,1.80
2022-12-19T21:24:01.610Z,1.90
2022-12-19T21:26:28.736Z,1.90
2022-12-19T21:28:58.102Z,1.90
2022-12-19T21:31:28.233Z,1.90
2022-12-19T21:33:56.282Z,1.90
2022-12-19T21:36:25.202Z,2.00
2022-12-19T21:38:55.677Z,1.90
2022-12-19T21:41:25.126Z,2.00
2022-12-19T21:43:57.231Z,2.10
2022-12-19T21:46:26.540Z,2.00
2022-12-19T21:48:55.848Z,2.10
2022-12-19T21:51:26.004Z,2.10
2022-12-19T21:53:57.968Z,1.90
2022-12-19T21:56:28.949Z,2.00
2022-12-19T21:58:59.033Z,1.90
2022-12-19T22:01:27.702Z,2.00
2022-12-19T22:03:59.384Z,2.00
2022-12-19T22:06:31.286Z,1.90
2022-12-19T22:08:59.587Z,1.90
2022-12-19T22:11:29.088Z,1.90
2022-12-19T22:13:58.014Z,2.10
2022-12-19T22:16:25.069Z,2.30
2022-12-19T22:18:53.109Z,2.30
2022-12-19T22:21:21.101Z,2.30
2022-12-19T22:23:48.489Z,2.20
2022-12-19T22:26:20.454Z,2.10
2022-12-19T22:28:51.668Z,2.10
2022-12-19T22:31:23.827Z,2.10
2022-12-19T22:33:54.313Z,2.30
2022-12-19T22:36:27.959Z,2.30
2022-12-19T22:39:00.559Z,2.20
2022-12-19T22:41:28.617Z,2.30
2022-12-19T22:43:57.511Z,2.30
2022-12-19T22:46:27.874Z,2.10
2022-12-19T22:48:58.053Z,2.10
2022-12-19T22:51:34.058Z,2.10
2022-12-19T22:54:02.023Z,2.20
2022-12-19T22:56:31.081Z,2.30
2022-12-19T22:59:03.357Z,2.30
2022-12-19T23:01:33.660Z,2.40
2022-12-19T23:04:02.759Z,2.20
2022-12-19T23:06:34.126Z,2.10
2022-12-19T23:09:02.207Z,2.20
2022-12-19T23:11:32.619Z,2.20
2022-12-19T23:14:03.251Z,2.20
2022-12-19T23:16:30.552Z,2.20
2022-12-19T23:19:00.748Z,2.20
2022-12-19T23:21:28.209Z,2.20
2022-12-19T23:23:56.332Z,2.30
2022-12-19T23:26:27.190Z,2.40
2022-12-19T23:29:00.685Z,2.50
2022-12-19T23:31:28.887Z,2.60
2022-12-19T23:33:57.698Z,2.60
2022-12-19T23:37:09.033Z,2.50
2022-12-19T23:39:18.844Z,2.40
2022-12-19T23:41:48.664Z,2.40
2022-12-19T23:44:23.072Z,2.40
2022-12-19T23:46:59.088Z,2.40
2022-12-19T23:49:29.811Z,2.60
2022-12-19T23:52:02.007Z,2.60
2022-12-19T23:54:32.261Z,2.70
2022-12-19T23:56:59.340Z,2.50
2022-12-19T23:59:27.655Z,2.40
